createdAt,value
2023-01-06T00:00:23.147Z,10.85
2023-01-06T00:02:49.819Z,10.88
2023-01-06T00:05:16.510Z,10.93
2023-01-06T00:07:44.227Z,10.77
2023-01-06T00:10:11.610Z,10.86
2023-01-06T00:12:38.194Z,10.87
2023-01-06T00:15:05.078Z,10.83
2023-01-06T00:17:31.760Z,10.79
2023-01-06T00:19:58.563Z,10.72
2023-01-06T00:22:25.155Z,10.58
2023-01-06T00:24:51.776Z,10.38
2023-01-06T00:27:18.398Z,10.51
2023-01-06T00:29:45.972Z,10.58
2023-01-06T00:32:12.591Z,10.73
2023-01-06T00:34:39.173Z,10.67
2023-01-06T00:37:06.243Z,10.76
2023-01-06T00:39:32.855Z,10.70
2023-01-06T00:42:05.959Z,10.61
2023-01-06T00:44:36.731Z,10.66
2023-01-06T00:47:04.157Z,10.62
2023-01-06T00:49:30.837Z,10.63
2023-01-06T00:51:57.452Z,10.65
2023-01-06T00:54:24.196Z,10.57
2023-01-06T00:56:51.713Z,10.66
2023-01-06T00:59:22.495Z,10.63
2023-01-06T01:01:51.133Z,10.75
2023-01-06T01:04:18.380Z,10.60
2023-01-06T01:06:45.840Z,10.59
2023-01-06T01:09:14.150Z,10.47
2023-01-06T01:11:59.510Z,10.45
2023-01-06T01:14:26.179Z,10.43
2023-01-06T01:16:52.731Z,10.41
2023-01-06T01:19:20.794Z,10.50
2023-01-06T01:21:47.567Z,10.40
2023-01-06T01:24:14.192Z,10.49
2023-01-06T01:26:40.839Z,10.59
2023-01-06T01:29:07.509Z,10.52
2023-01-06T01:31:34.108Z,10.63
2023-01-06T01:34:02.062Z,10.46
2023-01-06T01:36:28.676Z,10.60
2023-01-06T01:38:58.402Z,10.44
2023-01-06T01:41:26.011Z,10.43
2023-01-06T01:43:57.238Z,10.51
2023-01-06T01:46:28.345Z,10.46
2023-01-06T01:48:56.679Z,10.47
2023-01-06T01:51:25.119Z,10.49
2023-01-06T01:53:52.987Z,10.49
2023-01-06T01:56:22.391Z,10.50
2023-01-06T01:58:57.681Z,10.52
2023-01-06T02:01:24.718Z,10.49
2023-01-06T02:03:51.843Z,10.39
2023-01-06T02:06:21.217Z,10.28
2023-01-06T02:09:00.878Z,10.16
2023-01-06T02:11:29.383Z,10.06
2023-01-06T02:14:01.435Z,10.12
2023-01-06T02:16:34.594Z,10.05
2023-01-06T02:19:03.966Z,10.00
2023-01-06T02:21:41.854Z,9.91
2023-01-06T02:24:17.437Z,9.92
2023-01-06T02:26:53.971Z,10.04
2023-01-06T02:29:39.181Z,10.02
2023-01-06T02:32:36.038Z,9.97
2023-01-06T02:35:18.158Z,10.04
2023-01-06T02:37:53.620Z,9.89
2023-01-06T02:40:23.623Z,9.89
2023-01-06T02:43:21.108Z,9.72
2023-01-06T02:46:08.262Z,9.76
2023-01-06T02:48:35.594Z,9.80
2023-01-06T02:51:05.339Z,9.82
2023-01-06T02:53:39.482Z,9.75
2023-01-06T02:56:07.134Z,9.75
2023-01-06T02:58:33.693Z,9.84
2023-01-06T03:01:11.107Z,9.86
2023-01-06T03:03:39.812Z,9.81
2023-01-06T03:06:13.798Z,9.68
2023-01-06T03:08:41.441Z,9.61
2023-01-06T03:11:10.066Z,9.45
2023-01-06T03:13:49.047Z,9.41
2023-01-06T03:16:17.067Z,9.27
2023-01-06T03:18:46.123Z,9.38
2023-01-06T03:21:21.704Z,9.34
2023-01-06T03:23:48.501Z,9.22
2023-01-06T03:26:15.422Z,9.15
2023-01-06T03:28:43.886Z,8.84
2023-01-06T03:31:14.660Z,8.83
2023-01-06T03:33:54.182Z,8.73
2023-01-06T03:36:29.898Z,8.59
2023-01-06T03:39:02.824Z,8.78
2023-01-06T03:41:53.105Z,8.63
2023-01-06T03:44:26.549Z,8.48
2023-01-06T03:47:00.082Z,8.54
2023-01-06T03:49:38.813Z,8.47
2023-01-06T03:52:12.217Z,8.50
2023-01-06T03:54:58.295Z,8.52
2023-01-06T03:57:27.616Z,8.58
2023-01-06T03:59:57.343Z,8.61
2023-01-06T04:02:24.944Z,8.44
2023-01-06T04:05:03.210Z,8.43
2023-01-06T04:07:30.515Z,8.48
2023-01-06T04:09:57.295Z,8.44
2023-01-06T04:12:39.221Z,8.39
2023-01-06T04:15:09.029Z,8.30
2023-01-06T04:17:36.272Z,8.22
2023-01-06T04:20:03.780Z,8.24
2023-01-06T04:22:30.694Z,8.27
2023-01-06T04:24:58.151Z,8.44
2023-01-06T04:27:24.844Z,8.35
2023-01-06T04:29:51.526Z,8.48
2023-01-06T04:32:18.264Z,8.33
2023-01-06T04:34:45.163Z,8.19
2023-01-06T04:37:13.072Z,8.23
2023-01-06T04:39:39.692Z,8.05
2023-01-06T04:42:06.385Z,8.15
2023-01-06T04:44:33.010Z,8.27
2023-01-06T04:46:59.600Z,8.37
2023-01-06T04:49:26.321Z,8.30
2023-01-06T04:51:52.879Z,8.41
2023-01-06T04:54:19.507Z,8.43
2023-01-06T04:56:46.077Z,8.37
2023-01-06T04:59:12.730Z,8.24
2023-01-06T05:01:39.428Z,8.09
2023-01-06T05:04:09.028Z,8.21
2023-01-06T05:06:35.890Z,8.27
2023-01-06T05:09:02.471Z,8.40
2023-01-06T05:11:29.111Z,8.45
2023-01-06T05:13:55.652Z,8.30
2023-01-06T05:16:27.129Z,8.37
2023-01-06T05:18:54.141Z,8.30
2023-01-06T05:21:21.281Z,8.41
2023-01-06T05:23:48.009Z,8.29
2023-01-06T05:26:18.578Z,8.47
2023-01-06T05:28:45.287Z,8.31
2023-01-06T05:31:12.272Z,8.48
2023-01-06T05:33:39.304Z,8.29
2023-01-06T05:36:08.128Z,8.28
2023-01-06T05:38:34.825Z,8.31
2023-01-06T05:41:01.824Z,8.25
2023-01-06T05:43:28.806Z,8.26
2023-01-06T05:45:55.819Z,8.25
2023-01-06T05:48:26.580Z,8.39
2023-01-06T05:50:53.494Z,8.17
2023-01-06T05:53:20.170Z,8.06
2023-01-06T05:55:46.860Z,8.07
2023-01-06T05:58:13.396Z,8.08
2023-01-06T06:00:40.044Z,7.98
2023-01-06T06:03:06.666Z,7.84
2023-01-06T06:05:33.266Z,7.65
2023-01-06T06:07:59.874Z,7.53
2023-01-06T06:10:26.551Z,7.69
2023-01-06T06:12:53.117Z,7.47
2023-01-06T06:15:19.912Z,7.26
2023-01-06T06:17:46.585Z,7.30
2023-01-06T06:20:13.199Z,7.22
2023-01-06T06:22:39.808Z,7.08
2023-01-06T06:25:06.614Z,7.13
2023-01-06T06:27:33.361Z,7.31
2023-01-06T06:29:59.962Z,7.02
2023-01-06T06:32:29.726Z,6.97
2023-01-06T06:34:57.809Z,6.87
2023-01-06T06:37:24.414Z,7.07
2023-01-06T06:39:51.020Z,7.12
2023-01-06T06:42:17.723Z,7.15
2023-01-06T06:44:44.252Z,7.10
2023-01-06T06:47:10.837Z,6.81
2023-01-06T06:49:37.367Z,6.73
2023-01-06T06:52:04.081Z,6.80
2023-01-06T06:54:30.639Z,6.78
2023-01-06T06:56:57.343Z,6.65
2023-01-06T06:59:23.878Z,6.80
2023-01-06T07:01:50.635Z,6.67
2023-01-06T07:04:17.320Z,6.75
2023-01-06T07:06:43.992Z,6.73
2023-01-06T07:09:10.562Z,6.77
2023-01-06T07:11:37.227Z,6.80
2023-01-06T07:14:03.800Z,6.95
2023-01-06T07:16:30.979Z,6.95
2023-01-06T07:18:57.530Z,7.17
2023-01-06T07:21:24.159Z,7.27
2023-01-06T07:23:50.743Z,7.33
2023-01-06T07:26:17.455Z,7.34
2023-01-06T07:28:44.093Z,7.36
2023-01-06T07:31:11.101Z,7.39
2023-01-06T07:33:37.693Z,7.26
2023-01-06T07:36:04.489Z,7.26
2023-01-06T07:38:31.059Z,7.39
2023-01-06T07:41:01.332Z,7.53
2023-01-06T07:43:28.318Z,7.47
2023-01-06T07:45:55.113Z,7.57
2023-01-06T07:48:21.773Z,7.62
2023-01-06T07:50:48.612Z,7.64
2023-01-06T07:53:15.267Z,7.46
2023-01-06T07:55:41.858Z,7.52
2023-01-06T07:58:09.515Z,7.64
2023-01-06T08:00:36.382Z,7.78
2023-01-06T08:03:04.126Z,7.79
2023-01-06T08:05:30.779Z,8.11
2023-01-06T08:07:57.426Z,8.79
2023-01-06T08:10:23.997Z,8.52
2023-01-06T08:12:50.592Z,8.78
2023-01-06T08:15:17.137Z,8.73
2023-01-06T08:17:43.813Z,8.86
2023-01-06T08:20:10.429Z,8.83
2023-01-06T08:22:37.031Z,9.29
2023-01-06T08:25:03.650Z,8.75
2023-01-06T08:27:30.256Z,8.89
2023-01-06T08:29:56.877Z,9.16
2023-01-06T08:32:23.503Z,9.56
2023-01-06T08:34:50.062Z,9.48
2023-01-06T08:37:16.905Z,9.47
2023-01-06T08:39:43.432Z,9.31
2023-01-06T08:42:10.050Z,9.35
2023-01-06T08:44:36.694Z,9.20
2023-01-06T08:47:03.361Z,9.07
2023-01-06T08:49:29.936Z,9.42
2023-01-06T08:51:56.569Z,9.26
2023-01-06T08:54:23.164Z,9.31
2023-01-06T08:56:49.850Z,9.19
2023-01-06T08:59:17.282Z,9.13
2023-01-06T09:01:44.613Z,9.26
2023-01-06T09:04:11.525Z,9.34
2023-01-06T09:06:39.104Z,9.41
2023-01-06T09:09:06.497Z,9.40
2023-01-06T09:11:33.158Z,9.46
2023-01-06T09:14:00.080Z,9.48
2023-01-06T09:16:26.858Z,9.65
2023-01-06T09:18:53.478Z,9.68
2023-01-06T09:21:21.278Z,9.70
2023-01-06T09:23:48.301Z,9.73
2023-01-06T09:26:15.733Z,9.85
2023-01-06T09:28:42.562Z,9.54
2023-01-06T09:31:09.414Z,9.79
2023-01-06T09:33:36.608Z,9.80
2023-01-06T09:36:03.308Z,9.76
2023-01-06T09:38:29.962Z,9.75
2023-01-06T09:40:56.597Z,9.77
2023-01-06T09:43:25.999Z,9.76
2023-01-06T09:45:55.146Z,9.86
2023-01-06T09:48:24.496Z,9.92
2023-01-06T09:50:52.397Z,9.93
2023-01-06T09:53:26.134Z,10.04
2023-01-06T09:55:58.103Z,10.16
2023-01-06T09:58:27.370Z,10.21
2023-01-06T10:00:54.811Z,10.30
2023-01-06T10:03:25.633Z,10.43
2023-01-06T10:05:58.078Z,10.38
2023-01-06T10:08:41.606Z,10.49
2023-01-06T10:11:10.886Z,10.71
2023-01-06T10:13:43.367Z,10.85
2023-01-06T10:16:15.845Z,10.92
2023-01-06T10:18:45.299Z,10.93
2023-01-06T10:21:21.862Z,11.01
2023-01-06T10:23:57.490Z,11.25
2023-01-06T10:26:40.305Z,11.31
2023-01-06T10:29:13.849Z,11.44
2023-01-06T10:31:43.285Z,11.55
2023-01-06T10:34:23.105Z,11.57
2023-01-06T10:37:09.967Z,11.55
2023-01-06T10:39:37.933Z,11.72
2023-01-06T10:42:29.493Z,11.83
2023-01-06T10:44:56.248Z,11.85
2023-01-06T10:47:28.007Z,11.82
2023-01-06T10:49:54.912Z,11.99
2023-01-06T10:52:22.648Z,12.09
2023-01-06T10:54:52.322Z,12.16
2023-01-06T10:57:32.241Z,12.24
2023-01-06T11:00:13.108Z,12.19
2023-01-06T11:02:47.379Z,12.42
2023-01-06T11:05:15.356Z,12.44
2023-01-06T11:07:49.672Z,12.69
2023-01-06T11:10:34.869Z,12.56
2023-01-06T11:13:03.071Z,12.78
2023-01-06T11:15:41.073Z,12.79
2023-01-06T11:18:22.631Z,12.91
2023-01-06T11:21:07.354Z,13.06
2023-01-06T11:23:34.711Z,13.24
2023-01-06T11:26:01.228Z,13.37
2023-01-06T11:28:27.927Z,13.42
2023-01-06T11:30:57.538Z,13.49
2023-01-06T11:33:26.095Z,13.55
2023-01-06T11:35:53.443Z,13.73
2023-01-06T11:38:21.286Z,13.82
2023-01-06T11:40:52.222Z,13.89
2023-01-06T11:43:25.362Z,13.88
2023-01-06T11:45:57.517Z,14.04
2023-01-06T11:48:32.347Z,14.10
2023-01-06T11:51:00.680Z,14.11
2023-01-06T11:53:29.395Z,14.25
2023-01-06T11:56:03.814Z,14.41
2023-01-06T11:58:49.316Z,14.51
2023-01-06T12:01:28.330Z,14.37
2023-01-06T12:03:59.209Z,14.54
2023-01-06T12:06:37.220Z,14.61
2023-01-06T12:09:14.487Z,14.75
2023-01-06T12:11:46.118Z,14.68
2023-01-06T12:14:27.903Z,14.52
2023-01-06T12:16:59.189Z,14.52
2023-01-06T12:19:32.113Z,14.63
2023-01-06T12:21:59.355Z,14.82
2023-01-06T12:24:26.482Z,14.87
2023-01-06T12:26:53.273Z,15.05
2023-01-06T12:29:20.812Z,15.12
2023-01-06T12:31:47.416Z,15.15
2023-01-06T12:34:17.887Z,15.13
2023-01-06T12:36:55.385Z,15.22
2023-01-06T12:39:33.979Z,15.27
2023-01-06T12:42:08.241Z,15.43
2023-01-06T12:44:48.082Z,15.55
2023-01-06T12:47:14.894Z,15.67
2023-01-06T12:49:45.817Z,15.78
2023-01-06T12:52:15.296Z,15.83
2023-01-06T12:54:45.672Z,15.90
2023-01-06T12:57:15.131Z,15.87
2023-01-06T13:00:04.863Z,15.87
2023-01-06T13:02:31.525Z,15.90
2023-01-06T13:04:58.029Z,15.82
2023-01-06T13:07:34.182Z,15.71
2023-01-06T13:10:00.784Z,15.70
2023-01-06T13:12:33.567Z,15.72
2023-01-06T13:15:13.148Z,15.71
2023-01-06T13:17:43.084Z,15.66
2023-01-06T13:20:28.550Z,15.69
2023-01-06T13:23:04.140Z,15.64
2023-01-06T13:25:38.438Z,15.71
2023-01-06T13:28:24.284Z,15.75
2023-01-06T13:30:56.711Z,15.57
2023-01-06T13:33:23.282Z,15.57
2023-01-06T13:35:59.119Z,15.69
2023-01-06T13:38:39.363Z,15.68
2023-01-06T13:41:11.719Z,15.49
2023-01-06T13:43:38.593Z,15.53
2023-01-06T13:46:07.638Z,15.59
2023-01-06T13:48:38.741Z,15.60
2023-01-06T13:51:07.175Z,15.52
2023-01-06T13:53:41.414Z,15.51
2023-01-06T13:56:14.095Z,15.40
2023-01-06T13:58:41.042Z,15.37
2023-01-06T14:01:09.184Z,15.32
2023-01-06T14:03:40.311Z,15.43
2023-01-06T14:06:32.830Z,15.43
2023-01-06T14:09:00.776Z,15.41
2023-01-06T14:11:27.400Z,15.36
2023-01-06T14:13:56.541Z,15.28
2023-01-06T14:16:40.886Z,15.29
2023-01-06T14:19:09.047Z,15.36
2023-01-06T14:21:35.910Z,15.36
2023-01-06T14:24:06.898Z,15.37
2023-01-06T14:26:54.647Z,15.42
2023-01-06T14:29:39.689Z,15.54
2023-01-06T14:32:32.439Z,15.52
2023-01-06T14:35:01.203Z,15.45
2023-01-06T14:37:47.597Z,15.47
2023-01-06T14:40:23.445Z,15.36
2023-01-06T14:42:50.862Z,15.33
2023-01-06T14:45:24.972Z,15.35
2023-01-06T14:47:52.835Z,15.40
2023-01-06T14:50:24.864Z,15.37
2023-01-06T14:52:54.351Z,15.40
2023-01-06T14:55:22.092Z,15.26
2023-01-06T14:57:51.276Z,15.25
2023-01-06T15:00:26.963Z,15.24
2023-01-06T15:02:54.934Z,15.09
2023-01-06T15:05:27.281Z,15.08
2023-01-06T15:07:56.706Z,15.13
2023-01-06T15:10:23.419Z,15.15
2023-01-06T15:12:57.043Z,15.16
2023-01-06T15:15:28.851Z,15.15
2023-01-06T15:17:56.610Z,15.14
2023-01-06T15:20:29.131Z,15.18
2023-01-06T15:22:55.995Z,15.20
2023-01-06T15:25:24.234Z,15.20
2023-01-06T15:27:55.076Z,15.21
2023-01-06T15:30:22.850Z,15.23
2023-01-06T15:32:50.986Z,15.18
2023-01-06T15:35:20.325Z,15.20
2023-01-06T15:37:47.383Z,15.19
2023-01-06T15:40:19.338Z,15.18
2023-01-06T15:42:46.184Z,15.17
2023-01-06T15:45:26.844Z,15.17
2023-01-06T15:47:54.636Z,15.11
2023-01-06T15:50:22.661Z,15.08
2023-01-06T15:52:53.298Z,15.05
2023-01-06T15:55:23.027Z,15.01
2023-01-06T15:57:58.464Z,14.93
2023-01-06T16:00:26.603Z,14.89
2023-01-06T16:02:53.608Z,14.88
2023-01-06T16:05:35.728Z,14.86
2023-01-06T16:08:04.223Z,14.88
2023-01-06T16:10:37.719Z,14.78
2023-01-06T16:13:10.205Z,14.79
2023-01-06T16:15:49.973Z,14.74
2023-01-06T16:18:19.837Z,14.72
2023-01-06T16:20:46.514Z,14.71
2023-01-06T16:23:33.690Z,14.66
2023-01-06T16:26:09.296Z,14.66
2023-01-06T16:28:36.645Z,14.58
2023-01-06T16:31:07.669Z,14.55
2023-01-06T16:33:36.642Z,14.53
2023-01-06T16:36:03.309Z,14.50
2023-01-06T16:38:29.941Z,14.44
2023-01-06T16:40:56.542Z,14.41
2023-01-06T16:43:23.172Z,14.39
2023-01-06T16:45:54.096Z,14.34
2023-01-06T16:48:20.777Z,14.30
2023-01-06T16:50:53.185Z,14.28
2023-01-06T16:53:20.988Z,14.26
2023-01-06T16:55:51.425Z,14.22
2023-01-06T16:58:19.457Z,14.22
2023-01-06T17:00:54.261Z,14.19
2023-01-06T17:03:25.972Z,14.18
2023-01-06T17:05:53.353Z,14.15
2023-01-06T17:08:28.961Z,14.16
2023-01-06T17:10:56.316Z,14.12
2023-01-06T17:13:34.989Z,14.09
2023-01-06T17:16:10.638Z,14.05
2023-01-06T17:18:56.216Z,14.03
2023-01-06T17:21:24.959Z,13.99
2023-01-06T17:23:57.733Z,13.96
2023-01-06T17:26:24.583Z,13.99
2023-01-06T17:28:52.497Z,13.95
2023-01-06T17:31:36.762Z,13.94
2023-01-06T17:34:10.523Z,14.02
2023-01-06T17:36:41.085Z,14.21
2023-01-06T17:39:14.197Z,14.31
2023-01-06T17:41:40.932Z,14.41
2023-01-06T17:44:15.096Z,14.48
2023-01-06T17:46:41.851Z,14.52
2023-01-06T17:49:28.318Z,14.48
2023-01-06T17:51:54.998Z,14.43
2023-01-06T17:54:40.897Z,14.45
2023-01-06T17:57:15.847Z,14.36
2023-01-06T17:59:42.850Z,14.22
2023-01-06T18:02:18.311Z,14.16
2023-01-06T18:04:46.187Z,14.14
2023-01-06T18:07:13.763Z,14.17
2023-01-06T18:09:40.375Z,14.11
2023-01-06T18:12:11.274Z,14.10
2023-01-06T18:14:40.042Z,14.05
2023-01-06T18:17:28.958Z,14.01
2023-01-06T18:19:55.727Z,13.94
2023-01-06T18:22:23.124Z,13.90
2023-01-06T18:24:51.362Z,13.84
2023-01-06T18:27:29.410Z,13.79
2023-01-06T18:29:56.730Z,13.77
2023-01-06T18:32:42.744Z,13.76
2023-01-06T18:35:11.453Z,13.71
2023-01-06T18:37:38.065Z,13.67
2023-01-06T18:40:06.807Z,13.58
2023-01-06T18:42:33.373Z,13.55
2023-01-06T18:44:59.992Z,13.52
2023-01-06T18:47:27.840Z,13.48
2023-01-06T18:49:55.835Z,13.44
2023-01-06T18:52:25.290Z,13.29
2023-01-06T18:54:54.210Z,13.37
2023-01-06T18:57:45.685Z,13.27
2023-01-06T19:00:27.544Z,13.25
2023-01-06T19:02:56.924Z,13.10
2023-01-06T19:05:23.540Z,13.11
2023-01-06T19:07:51.564Z,12.96
2023-01-06T19:10:26.522Z,12.87
2023-01-06T19:12:58.257Z,12.78
2023-01-06T19:15:26.025Z,12.83
2023-01-06T19:17:54.006Z,12.76
2023-01-06T19:20:35.179Z,12.74
2023-01-06T19:23:10.966Z,12.74
2023-01-06T19:25:40.684Z,12.72
2023-01-06T19:28:33.787Z,12.66
2023-01-06T19:31:04.241Z,12.67
2023-01-06T19:33:33.559Z,12.62
2023-01-06T19:36:06.417Z,12.60
2023-01-06T19:38:38.622Z,12.47
2023-01-06T19:41:09.100Z,12.44
2023-01-06T19:43:36.239Z,12.43
2023-01-06T19:46:04.744Z,12.41
2023-01-06T19:48:38.425Z,12.26
2023-01-06T19:51:23.700Z,12.09
2023-01-06T19:54:13.432Z,12.19
2023-01-06T19:56:41.489Z,12.07
2023-01-06T19:59:31.339Z,12.12
2023-01-06T20:02:17.588Z,12.12
2023-01-06T20:04:44.276Z,12.09
2023-01-06T20:07:10.860Z,12.09
2023-01-06T20:09:37.677Z,11.95
2023-01-06T20:12:04.539Z,11.86
2023-01-06T20:14:31.361Z,11.87
2023-01-06T20:16:59.466Z,11.84
2023-01-06T20:19:26.142Z,11.85
2023-01-06T20:21:52.655Z,11.82
2023-01-06T20:24:19.300Z,11.82
2023-01-06T20:26:45.867Z,11.69
2023-01-06T20:29:12.611Z,11.74
2023-01-06T20:31:39.380Z,11.56
2023-01-06T20:34:06.040Z,11.29
2023-01-06T20:36:32.569Z,11.25
2023-01-06T20:38:59.242Z,11.21
2023-01-06T20:41:25.837Z,11.27
2023-01-06T20:43:52.474Z,11.25
2023-01-06T20:46:19.138Z,11.18
2023-01-06T20:48:47.714Z,11.21
2023-01-06T20:51:14.333Z,11.17
2023-01-06T20:53:40.967Z,11.15
2023-01-06T20:56:08.038Z,11.17
2023-01-06T20:58:34.588Z,11.15
2023-01-06T21:01:01.192Z,11.19
2023-01-06T21:03:27.784Z,11.25
2023-01-06T21:05:54.312Z,11.16
2023-01-06T21:08:20.982Z,11.21
2023-01-06T21:10:47.565Z,11.01
2023-01-06T21:13:14.143Z,10.90
2023-01-06T21:15:40.703Z,10.92
2023-01-06T21:18:07.305Z,10.80
2023-01-06T21:20:33.864Z,10.84
2023-01-06T21:23:00.490Z,10.80
2023-01-06T21:25:27.106Z,10.77
2023-01-06T21:27:53.707Z,10.62
2023-01-06T21:30:20.355Z,10.55
2023-01-06T21:32:47.061Z,10.57
2023-01-06T21:35:13.759Z,10.72
2023-01-06T21:37:40.349Z,10.69
2023-01-06T21:40:08.576Z,10.60
2023-01-06T21:42:54.490Z,10.62
2023-01-06T21:45:21.107Z,10.59
2023-01-06T21:47:48.032Z,10.62
2023-01-06T21:50:14.712Z,10.55
2023-01-06T21:52:41.394Z,10.65
2023-01-06T21:55:08.433Z,10.71
2023-01-06T21:57:36.132Z,10.55
2023-01-06T22:00:04.304Z,10.64
2023-01-06T22:02:39.465Z,10.53
2023-01-06T22:05:06.468Z,10.54
2023-01-06T22:07:34.891Z,10.54
2023-01-06T22:10:03.400Z,10.57
2023-01-06T22:12:31.853Z,10.45
2023-01-06T22:14:58.431Z,10.41
2023-01-06T22:17:25.308Z,10.42
2023-01-06T22:19:52.807Z,10.32
2023-01-06T22:22:21.692Z,10.39
2023-01-06T22:24:49.423Z,10.21
2023-01-06T22:27:16.025Z,10.23
2023-01-06T22:29:42.571Z,10.23
2023-01-06T22:32:09.167Z,10.23
2023-01-06T22:34:37.297Z,10.27
2023-01-06T22:39:45.516Z,10.09
2023-01-06T22:42:12.201Z,10.02
2023-01-06T22:44:38.782Z,9.94
2023-01-06T22:47:05.445Z,9.91
2023-01-06T22:49:32.095Z,9.84
2023-01-06T22:51:58.639Z,9.69
2023-01-06T22:54:25.361Z,9.75
2023-01-06T22:56:51.905Z,9.69
2023-01-06T22:59:18.488Z,9.68
2023-01-06T23:01:45.576Z,9.34
2023-01-06T23:04:13.694Z,9.43
2023-01-06T23:06:40.368Z,9.56
2023-01-06T23:09:06.999Z,9.51
2023-01-06T23:11:35.372Z,9.60
2023-01-06T23:14:01.950Z,9.49
2023-01-06T23:16:30.249Z,9.52
2023-01-06T23:18:57.084Z,9.51
2023-01-06T23:21:24.536Z,9.46
2023-01-06T23:23:51.817Z,9.38
2023-01-06T23:26:20.141Z,9.38
2023-01-06T23:28:46.705Z,9.46
2023-01-06T23:31:17.692Z,9.30
2023-01-06T23:33:45.655Z,9.35
2023-01-06T23:36:13.406Z,9.41
2023-01-06T23:38:40.357Z,9.41
2023-01-06T23:41:08.587Z,9.35
2023-01-06T23:43:35.714Z,9.44
2023-01-06T23:46:10.063Z,9.32
2023-01-06T23:48:37.224Z,9.44
2023-01-06T23:51:04.480Z,9.33
2023-01-06T23:53:31.717Z,9.40
2023-01-06T23:56:02.491Z,9.40
2023-01-06T23:58:30.273Z,9.30
